sensor_id;sensor_type;location;lat;lon;timestamp;P1;durP1;ratioP1;P2;durP2;ratioP2
15043;SDS011;7619;48.562;8.910;2023-06-10T00:01:52;4.27;;;3.87;;
15043;SDS011;7619;48.562;8.910;2023-06-10T00:04:22;4.50;;;4.10;;
15043;SDS011;7619;48.562;8.910;2023-06-10T00:06:50;5.20;;;4.70;;
15043;SDS011;7619;48.562;8.910;2023-06-10T00:09:19;5.33;;;4.50;;
15043;SDS011;7619;48.562;8.910;2023-06-10T00:11:47;7.10;;;4.97;;
15043;SDS011;7619;48.562;8.910;2023-06-10T00:14:16;5.27;;;4.73;;
15043;SDS011;7619;48.562;8.910;2023-06-10T00:16:44;5.33;;;4.83;;
15043;SDS011;7619;48.562;8.910;2023-06-10T00:19:12;6.03;;;4.90;;
15043;SDS011;7619;48.562;8.910;2023-06-10T00:21:42;7.07;;;6.13;;
15043;SDS011;7619;48.562;8.910;2023-06-10T00:24:11;8.57;;;6.97;;
15043;SDS011;7619;48.562;8.910;2023-06-10T00:26:39;9.70;;;6.47;;
15043;SDS011;7619;48.562;8.910;2023-06-10T00:29:08;8.20;;;7.40;;
15043;SDS011;7619;48.562;8.910;2023-06-10T00:31:36;6.23;;;5.63;;
15043;SDS011;7619;48.562;8.910;2023-06-10T00:34:05;5.80;;;5.20;;
15043;SDS011;7619;48.562;8.910;2023-06-10T00:36:34;6.73;;;6.03;;
15043;SDS011;7619;48.562;8.910;2023-06-10T00:39:03;6.10;;;5.50;;
15043;SDS011;7619;48.562;8.910;2023-06-10T00:41:32;6.30;;;5.37;;
15043;SDS011;7619;48.562;8.910;2023-06-10T00:44:01;5.93;;;5.10;;
15043;SDS011;7619;48.562;8.910;2023-06-10T00:46:29;6.00;;;4.50;;
15043;SDS011;7619;48.562;8.910;2023-06-10T00:48:59;5.17;;;4.47;;
15043;SDS011;7619;48.562;8.910;2023-06-10T00:51:27;6.13;;;5.00;;
15043;SDS011;7619;48.562;8.910;2023-06-10T00:53:55;5.20;;;4.57;;
15043;SDS011;7619;48.562;8.910;2023-06-10T00:56:24;4.67;;;4.23;;
15043;SDS011;7619;48.562;8.910;2023-06-10T00:58:52;5.00;;;4.50;;
15043;SDS011;7619;48.562;8.910;2023-06-10T01:01:20;5.07;;;4.57;;
15043;SDS011;7619;48.562;8.910;2023-06-10T01:03:49;4.63;;;4.23;;
15043;SDS011;7619;48.562;8.910;2023-06-10T01:06:21;5.63;;;4.40;;
15043;SDS011;7619;48.562;8.910;2023-06-10T01:08:54;4.87;;;4.37;;
15043;SDS011;7619;48.562;8.910;2023-06-10T01:11:21;4.53;;;4.13;;
15043;SDS011;7619;48.562;8.910;2023-06-10T01:13:50;4.47;;;4.00;;
15043;SDS011;7619;48.562;8.910;2023-06-10T01:16:19;5.97;;;4.87;;
15043;SDS011;7619;48.562;8.910;2023-06-10T01:18:48;5.17;;;3.57;;
15043;SDS011;7619;48.562;8.910;2023-06-10T01:21:19;4.37;;;3.97;;
15043;SDS011;7619;48.562;8.910;2023-06-10T01:23:47;4.00;;;3.60;;
15043;SDS011;7619;48.562;8.910;2023-06-10T01:26:17;4.37;;;3.90;;
15043;SDS011;7619;48.562;8.910;2023-06-10T01:28:47;4.67;;;4.07;;
15043;SDS011;7619;48.562;8.910;2023-06-10T01:31:20;4.90;;;4.30;;
15043;SDS011;7619;48.562;8.910;2023-06-10T01:33:49;4.23;;;3.83;;
15043;SDS011;7619;48.562;8.910;2023-06-10T01:36:18;5.33;;;3.90;;
15043;SDS011;7619;48.562;8.910;2023-06-10T01:38:47;4.90;;;3.90;;
15043;SDS011;7619;48.562;8.910;2023-06-10T01:41:17;7.10;;;4.33;;
15043;SDS011;7619;48.562;8.910;2023-06-10T01:43:46;5.17;;;3.80;;
15043;SDS011;7619;48.562;8.910;2023-06-10T01:46:14;5.43;;;3.80;;
15043;SDS011;7619;48.562;8.910;2023-06-10T01:48:46;4.20;;;3.80;;
15043;SDS011;7619;48.562;8.910;2023-06-10T01:51:14;5.40;;;4.60;;
15043;SDS011;7619;48.562;8.910;2023-06-10T01:53:44;4.57;;;3.90;;
15043;SDS011;7619;48.562;8.910;2023-06-10T01:56:12;4.37;;;3.97;;
15043;SDS011;7619;48.562;8.910;2023-06-10T01:58:42;5.63;;;4.33;;
15043;SDS011;7619;48.562;8.910;2023-06-10T02:01:10;5.20;;;4.10;;
15043;SDS011;7619;48.562;8.910;2023-06-10T02:03:39;6.00;;;4.73;;
15043;SDS011;7619;48.562;8.910;2023-06-10T02:06:07;4.40;;;4.03;;
15043;SDS011;7619;48.562;8.910;2023-06-10T02:08:35;5.30;;;4.80;;
15043;SDS011;7619;48.562;8.910;2023-06-10T02:11:03;4.80;;;4.23;;
15043;SDS011;7619;48.562;8.910;2023-06-10T02:13:33;4.63;;;4.10;;
15043;SDS011;7619;48.562;8.910;2023-06-10T02:16:02;5.10;;;4.60;;
15043;SDS011;7619;48.562;8.910;2023-06-10T02:18:30;6.13;;;5.00;;
15043;SDS011;7619;48.562;8.910;2023-06-10T02:20:58;4.50;;;4.10;;
15043;SDS011;7619;48.562;8.910;2023-06-10T02:23:26;5.60;;;4.60;;
15043;SDS011;7619;48.562;8.910;2023-06-10T02:25:54;4.53;;;4.13;;
15043;SDS011;7619;48.562;8.910;2023-06-10T02:28:22;4.23;;;3.90;;
15043;SDS011;7619;48.562;8.910;2023-06-10T02:30:51;4.63;;;4.23;;
15043;SDS011;7619;48.562;8.910;2023-06-10T02:33:19;6.13;;;4.30;;
15043;SDS011;7619;48.562;8.910;2023-06-10T02:35:47;5.67;;;5.07;;
15043;SDS011;7619;48.562;8.910;2023-06-10T02:38:15;5.33;;;4.43;;
15043;SDS011;7619;48.562;8.910;2023-06-10T02:40:43;5.60;;;3.80;;
15043;SDS011;7619;48.562;8.910;2023-06-10T02:43:11;5.00;;;4.40;;
15043;SDS011;7619;48.562;8.910;2023-06-10T02:45:40;4.97;;;4.47;;
15043;SDS011;7619;48.562;8.910;2023-06-10T02:48:08;4.93;;;4.43;;
15043;SDS011;7619;48.562;8.910;2023-06-10T02:50:36;4.63;;;4.23;;
15043;SDS011;7619;48.562;8.910;2023-06-10T02:53:05;4.43;;;3.97;;
15043;SDS011;7619;48.562;8.910;2023-06-10T02:55:33;5.50;;;4.97;;
15043;SDS011;7619;48.562;8.910;2023-06-10T02:58:02;5.20;;;4.40;;
15043;SDS011;7619;48.562;8.910;2023-06-10T03:00:30;5.60;;;4.43;;
15043;SDS011;7619;48.562;8.910;2023-06-10T03:02:58;4.73;;;4.30;;
15043;SDS011;7619;48.562;8.910;2023-06-10T03:05:28;5.77;;;4.43;;
15043;SDS011;7619;48.562;8.910;2023-06-10T03:07:56;6.50;;;4.87;;
15043;SDS011;7619;48.562;8.910;2023-06-10T03:10:24;5.20;;;4.63;;
15043;SDS011;7619;48.562;8.910;2023-06-10T03:12:52;5.00;;;4.60;;
15043;SDS011;7619;48.562;8.910;2023-06-10T03:15:20;5.30;;;4.20;;
15043;SDS011;7619;48.562;8.910;2023-06-10T03:17:48;5.23;;;4.40;;
15043;SDS011;7619;48.562;8.910;2023-06-10T03:20:16;6.90;;;5.73;;
15043;SDS011;7619;48.562;8.910;2023-06-10T03:22:44;5.23;;;4.73;;
15043;SDS011;7619;48.562;8.910;2023-06-10T03:27:51;4.93;;;4.23;;
15043;SDS011;7619;48.562;8.910;2023-06-10T03:30:19;5.40;;;4.57;;
15043;SDS011;7619;48.562;8.910;2023-06-10T03:32:47;5.17;;;4.67;;
15043;SDS011;7619;48.562;8.910;2023-06-10T03:35:16;4.33;;;3.93;;
15043;SDS011;7619;48.562;8.910;2023-06-10T03:37:44;5.97;;;4.93;;
15043;SDS011;7619;48.562;8.910;2023-06-10T03:40:12;4.83;;;4.33;;
15043;SDS011;7619;48.562;8.910;2023-06-10T03:42:40;6.97;;;5.27;;
15043;SDS011;7619;48.562;8.910;2023-06-10T03:45:11;6.10;;;4.43;;
15043;SDS011;7619;48.562;8.910;2023-06-10T03:47:39;7.37;;;5.23;;
15043;SDS011;7619;48.562;8.910;2023-06-10T03:50:08;6.23;;;4.97;;
15043;SDS011;7619;48.562;8.910;2023-06-10T03:52:37;4.83;;;4.33;;
15043;SDS011;7619;48.562;8.910;2023-06-10T03:55:06;6.30;;;4.87;;
15043;SDS011;7619;48.562;8.910;2023-06-10T03:57:35;4.93;;;4.43;;
15043;SDS011;7619;48.562;8.910;2023-06-10T04:00:03;6.03;;;5.03;;
15043;SDS011;7619;48.562;8.910;2023-06-10T04:02:35;5.27;;;4.77;;
15043;SDS011;7619;48.562;8.910;2023-06-10T04:05:03;5.13;;;4.63;;
15043;SDS011;7619;48.562;8.910;2023-06-10T04:07:32;5.43;;;4.90;;
15043;SDS011;7619;48.562;8.910;2023-06-10T04:10:01;6.07;;;4.93;;
15043;SDS011;7619;48.562;8.910;2023-06-10T04:12:29;5.67;;;5.07;;
15043;SDS011;7619;48.562;8.910;2023-06-10T04:14:57;5.37;;;4.87;;
15043;SDS011;7619;48.562;8.910;2023-06-10T04:17:27;5.90;;;5.27;;
15043;SDS011;7619;48.562;8.910;2023-06-10T04:19:55;5.23;;;4.60;;
15043;SDS011;7619;48.562;8.910;2023-06-10T04:22:23;5.43;;;4.93;;
15043;SDS011;7619;48.562;8.910;2023-06-10T04:24:51;5.07;;;4.57;;
15043;SDS011;7619;48.562;8.910;2023-06-10T04:27:20;5.73;;;5.00;;
15043;SDS011;7619;48.562;8.910;2023-06-10T04:29:48;5.53;;;4.77;;
15043;SDS011;7619;48.562;8.910;2023-06-10T04:32:16;4.67;;;4.27;;
15043;SDS011;7619;48.562;8.910;2023-06-10T04:34:44;4.97;;;4.53;;
15043;SDS011;7619;48.562;8.910;2023-06-10T04:37:12;4.73;;;4.33;;
15043;SDS011;7619;48.562;8.910;2023-06-10T04:39:41;5.20;;;4.70;;
15043;SDS011;7619;48.562;8.910;2023-06-10T04:42:09;4.70;;;4.30;;
15043;SDS011;7619;48.562;8.910;2023-06-10T04:44:37;5.27;;;4.77;;
15043;SDS011;7619;48.562;8.910;2023-06-10T04:47:07;3.77;;;3.47;;
15043;SDS011;7619;48.562;8.910;2023-06-10T04:49:35;4.80;;;4.30;;
15043;SDS011;7619;48.562;8.910;2023-06-10T04:52:04;6.47;;;3.80;;
15043;SDS011;7619;48.562;8.910;2023-06-10T04:54:32;5.60;;;4.63;;
15043;SDS011;7619;48.562;8.910;2023-06-10T04:57:00;5.83;;;4.00;;
15043;SDS011;7619;48.562;8.910;2023-06-10T04:59:28;4.80;;;4.37;;
15043;SDS011;7619;48.562;8.910;2023-06-10T05:01:56;4.33;;;3.90;;
15043;SDS011;7619;48.562;8.910;2023-06-10T05:04:25;4.80;;;4.30;;
15043;SDS011;7619;48.562;8.910;2023-06-10T05:06:53;4.60;;;4.20;;
15043;SDS011;7619;48.562;8.910;2023-06-10T05:09:21;4.27;;;3.87;;
15043;SDS011;7619;48.562;8.910;2023-06-10T05:11:50;4.13;;;3.73;;
15043;SDS011;7619;48.562;8.910;2023-06-10T05:14:18;3.60;;;3.30;;
15043;SDS011;7619;48.562;8.910;2023-06-10T05:16:47;4.20;;;3.80;;
15043;SDS011;7619;48.562;8.910;2023-06-10T05:19:16;4.20;;;3.90;;
15043;SDS011;7619;48.562;8.910;2023-06-10T05:21:44;4.00;;;3.60;;
15043;SDS011;7619;48.562;8.910;2023-06-10T05:24:12;4.10;;;3.70;;
15043;SDS011;7619;48.562;8.910;2023-06-10T05:26:40;3.90;;;3.50;;
15043;SDS011;7619;48.562;8.910;2023-06-10T05:29:09;5.10;;;3.80;;
15043;SDS011;7619;48.562;8.910;2023-06-10T05:31:37;4.23;;;3.80;;
15043;SDS011;7619;48.562;8.910;2023-06-10T05:34:05;4.73;;;3.73;;
15043;SDS011;7619;48.562;8.910;2023-06-10T05:36:33;4.43;;;3.67;;
15043;SDS011;7619;48.562;8.910;2023-06-10T05:39:01;4.00;;;3.60;;
15043;SDS011;7619;48.562;8.910;2023-06-10T05:41:29;3.63;;;3.33;;
15043;SDS011;7619;48.562;8.910;2023-06-10T05:43:58;4.40;;;4.00;;
15043;SDS011;7619;48.562;8.910;2023-06-10T05:46:26;3.83;;;3.50;;
15043;SDS011;7619;48.562;8.910;2023-06-10T05:48:54;4.57;;;4.17;;
15043;SDS011;7619;48.562;8.910;2023-06-10T05:51:22;3.93;;;3.63;;
15043;SDS011;7619;48.562;8.910;2023-06-10T05:53:50;4.30;;;3.90;;
15043;SDS011;7619;48.562;8.910;2023-06-10T05:56:18;4.03;;;3.57;;
15043;SDS011;7619;48.562;8.910;2023-06-10T05:58:47;3.93;;;3.40;;
15043;SDS011;7619;48.562;8.910;2023-06-10T06:01:15;4.10;;;3.43;;
15043;SDS011;7619;48.562;8.910;2023-06-10T06:03:43;4.30;;;3.80;;
15043;SDS011;7619;48.562;8.910;2023-06-10T06:06:11;4.30;;;3.10;;
15043;SDS011;7619;48.562;8.910;2023-06-10T06:08:39;3.50;;;3.20;;
15043;SDS011;7619;48.562;8.910;2023-06-10T06:11:07;3.60;;;3.30;;
15043;SDS011;7619;48.562;8.910;2023-06-10T06:13:36;3.80;;;3.20;;
15043;SDS011;7619;48.562;8.910;2023-06-10T06:16:04;3.30;;;3.10;;
15043;SDS011;7619;48.562;8.910;2023-06-10T06:18:32;3.40;;;3.10;;
15043;SDS011;7619;48.562;8.910;2023-06-10T06:21:01;4.40;;;4.00;;
15043;SDS011;7619;48.562;8.910;2023-06-10T06:23:29;4.03;;;3.73;;
15043;SDS011;7619;48.562;8.910;2023-06-10T06:25:57;3.13;;;2.93;;
15043;SDS011;7619;48.562;8.910;2023-06-10T06:28:26;4.30;;;3.40;;
15043;SDS011;7619;48.562;8.910;2023-06-10T06:30:56;3.87;;;3.20;;
15043;SDS011;7619;48.562;8.910;2023-06-10T06:33:24;4.43;;;3.40;;
15043;SDS011;7619;48.562;8.910;2023-06-10T06:35:53;3.87;;;3.47;;
15043;SDS011;7619;48.562;8.910;2023-06-10T06:38:21;4.17;;;3.30;;
15043;SDS011;7619;48.562;8.910;2023-06-10T06:40:49;3.97;;;3.30;;
15043;SDS011;7619;48.562;8.910;2023-06-10T06:43:17;3.30;;;3.00;;
15043;SDS011;7619;48.562;8.910;2023-06-10T06:45:46;3.47;;;3.17;;
15043;SDS011;7619;48.562;8.910;2023-06-10T06:48:14;4.20;;;3.80;;
15043;SDS011;7619;48.562;8.910;2023-06-10T06:50:42;3.87;;;3.57;;
15043;SDS011;7619;48.562;8.910;2023-06-10T06:53:10;2.93;;;2.73;;
15043;SDS011;7619;48.562;8.910;2023-06-10T06:55:38;3.47;;;3.20;;
15043;SDS011;7619;48.562;8.910;2023-06-10T06:58:06;3.63;;;3.00;;
15043;SDS011;7619;48.562;8.910;2023-06-10T07:00:37;2.80;;;2.60;;
15043;SDS011;7619;48.562;8.910;2023-06-10T07:03:05;3.30;;;3.00;;
15043;SDS011;7619;48.562;8.910;2023-06-10T07:05:33;3.03;;;2.83;;
15043;SDS011;7619;48.562;8.910;2023-06-10T07:08:03;3.53;;;3.23;;
15043;SDS011;7619;48.562;8.910;2023-06-10T07:10:32;2.90;;;2.67;;
15043;SDS011;7619;48.562;8.910;2023-06-10T07:13:00;3.50;;;3.20;;
15043;SDS011;7619;48.562;8.910;2023-06-10T07:15:28;3.20;;;2.90;;
15043;SDS011;7619;48.562;8.910;2023-06-10T07:17:57;3.23;;;2.93;;
15043;SDS011;7619;48.562;8.910;2023-06-10T07:20:25;3.23;;;2.97;;
15043;SDS011;7619;48.562;8.910;2023-06-10T07:22:56;3.27;;;2.97;;
15043;SDS011;7619;48.562;8.910;2023-06-10T07:25:24;3.27;;;2.93;;
15043;SDS011;7619;48.562;8.910;2023-06-10T07:27:53;3.87;;;3.47;;
15043;SDS011;7619;48.562;8.910;2023-06-10T07:30:21;3.00;;;2.80;;
15043;SDS011;7619;48.562;8.910;2023-06-10T07:32:49;3.17;;;2.87;;
15043;SDS011;7619;48.562;8.910;2023-06-10T07:35:18;3.50;;;3.20;;
15043;SDS011;7619;48.562;8.910;2023-06-10T07:37:46;3.27;;;2.97;;
15043;SDS011;7619;48.562;8.910;2023-06-10T07:40:14;3.23;;;2.93;;
15043;SDS011;7619;48.562;8.910;2023-06-10T07:42:42;3.33;;;2.90;;
15043;SDS011;7619;48.562;8.910;2023-06-10T07:45:10;3.40;;;3.10;;
15043;SDS011;7619;48.562;8.910;2023-06-10T07:47:39;3.47;;;2.93;;
15043;SDS011;7619;48.562;8.910;2023-06-10T07:50:07;2.97;;;2.70;;
15043;SDS011;7619;48.562;8.910;2023-06-10T07:52:35;3.57;;;3.27;;
15043;SDS011;7619;48.562;8.910;2023-06-10T07:55:04;3.40;;;3.10;;
15043;SDS011;7619;48.562;8.910;2023-06-10T07:57:32;2.70;;;2.50;;
15043;SDS011;7619;48.562;8.910;2023-06-10T08:00:04;3.27;;;2.97;;
15043;SDS011;7619;48.562;8.910;2023-06-10T08:02:33;3.00;;;2.70;;
15043;SDS011;7619;48.562;8.910;2023-06-10T08:05:01;2.70;;;2.50;;
15043;SDS011;7619;48.562;8.910;2023-06-10T08:07:29;3.20;;;2.90;;
15043;SDS011;7619;48.562;8.910;2023-06-10T08:09:57;2.67;;;2.47;;
15043;SDS011;7619;48.562;8.910;2023-06-10T08:12:26;3.07;;;2.70;;
15043;SDS011;7619;48.562;8.910;2023-06-10T08:14:54;2.90;;;2.70;;
15043;SDS011;7619;48.562;8.910;2023-06-10T08:17:22;5.20;;;3.47;;
15043;SDS011;7619;48.562;8.910;2023-06-10T08:19:50;2.77;;;2.57;;
15043;SDS011;7619;48.562;8.910;2023-06-10T08:22:19;2.80;;;2.60;;
15043;SDS011;7619;48.562;8.910;2023-06-10T08:24:47;3.00;;;2.70;;
15043;SDS011;7619;48.562;8.910;2023-06-10T08:27:15;2.77;;;2.57;;
15043;SDS011;7619;48.562;8.910;2023-06-10T08:29:43;5.00;;;2.90;;
15043;SDS011;7619;48.562;8.910;2023-06-10T08:32:11;3.00;;;2.70;;
15043;SDS011;7619;48.562;8.910;2023-06-10T08:34:39;3.23;;;2.93;;
15043;SDS011;7619;48.562;8.910;2023-06-10T08:37:08;2.50;;;2.30;;
15043;SDS011;7619;48.562;8.910;2023-06-10T08:39:36;3.10;;;2.90;;
15043;SDS011;7619;48.562;8.910;2023-06-10T08:42:08;3.07;;;2.80;;
15043;SDS011;7619;48.562;8.910;2023-06-10T08:44:35;3.63;;;2.67;;
15043;SDS011;7619;48.562;8.910;2023-06-10T08:47:08;2.73;;;2.53;;
15043;SDS011;7619;48.562;8.910;2023-06-10T08:49:37;3.27;;;2.63;;
15043;SDS011;7619;48.562;8.910;2023-06-10T08:52:06;3.00;;;2.70;;
15043;SDS011;7619;48.562;8.910;2023-06-10T08:54:34;2.50;;;2.30;;
15043;SDS011;7619;48.562;8.910;2023-06-10T08:57:05;3.10;;;2.30;;
15043;SDS011;7619;48.562;8.910;2023-06-10T08:59:34;2.43;;;2.23;;
15043;SDS011;7619;48.562;8.910;2023-06-10T09:02:02;3.07;;;2.47;;
15043;SDS011;7619;48.562;8.910;2023-06-10T09:04:32;2.20;;;2.00;;
15043;SDS011;7619;48.562;8.910;2023-06-10T09:07:01;2.53;;;2.33;;
15043;SDS011;7619;48.562;8.910;2023-06-10T09:09:30;2.67;;;2.47;;
15043;SDS011;7619;48.562;8.910;2023-06-10T09:11:58;2.40;;;2.20;;
15043;SDS011;7619;48.562;8.910;2023-06-10T09:14:26;2.60;;;2.40;;
15043;SDS011;7619;48.562;8.910;2023-06-10T09:16:54;2.57;;;2.37;;
15043;SDS011;7619;48.562;8.910;2023-06-10T09:19:24;2.03;;;1.90;;
15043;SDS011;7619;48.562;8.910;2023-06-10T09:21:52;2.60;;;2.30;;
15043;SDS011;7619;48.562;8.910;2023-06-10T09:24:21;2.53;;;2.33;;
15043;SDS011;7619;48.562;8.910;2023-06-10T09:26:50;2.57;;;2.37;;
15043;SDS011;7619;48.562;8.910;2023-06-10T09:29:18;2.90;;;2.60;;
15043;SDS011;7619;48.562;8.910;2023-06-10T09:31:47;2.63;;;2.20;;
15043;SDS011;7619;48.562;8.910;2023-06-10T09:34:15;3.00;;;2.63;;
15043;SDS011;7619;48.562;8.910;2023-06-10T09:36:43;2.60;;;2.40;;
15043;SDS011;7619;48.562;8.910;2023-06-10T09:39:15;2.67;;;2.47;;
15043;SDS011;7619;48.562;8.910;2023-06-10T09:41:44;2.80;;;2.60;;
15043;SDS011;7619;48.562;8.910;2023-06-10T09:44:12;2.33;;;2.13;;
15043;SDS011;7619;48.562;8.910;2023-06-10T09:46:42;2.80;;;2.60;;
15043;SDS011;7619;48.562;8.910;2023-06-10T09:49:10;3.10;;;2.80;;
15043;SDS011;7619;48.562;8.910;2023-06-10T09:51:38;2.87;;;2.53;;
15043;SDS011;7619;48.562;8.910;2023-06-10T09:54:08;2.37;;;2.17;;
15043;SDS011;7619;48.562;8.910;2023-06-10T09:56:36;2.60;;;2.40;;
15043;SDS011;7619;48.562;8.910;2023-06-10T09:59:06;2.60;;;2.40;;
15043;SDS011;7619;48.562;8.910;2023-06-10T10:01:35;2.33;;;2.13;;
15043;SDS011;7619;48.562;8.910;2023-06-10T10:04:03;2.97;;;2.67;;
15043;SDS011;7619;48.562;8.910;2023-06-10T10:06:31;2.60;;;2.40;;
15043;SDS011;7619;48.562;8.910;2023-06-10T10:09:00;2.37;;;2.17;;
15043;SDS011;7619;48.562;8.910;2023-06-10T10:11:30;2.97;;;2.67;;
15043;SDS011;7619;48.562;8.910;2023-06-10T10:13:59;3.37;;;2.37;;
15043;SDS011;7619;48.562;8.910;2023-06-10T10:16:29;3.03;;;2.67;;
15043;SDS011;7619;48.562;8.910;2023-06-10T10:18:59;2.40;;;2.17;;
15043;SDS011;7619;48.562;8.910;2023-06-10T10:21:28;2.27;;;2.07;;
15043;SDS011;7619;48.562;8.910;2023-06-10T10:23:59;2.30;;;2.07;;
15043;SDS011;7619;48.562;8.910;2023-06-10T10:26:28;3.93;;;2.17;;
15043;SDS011;7619;48.562;8.910;2023-06-10T10:29:02;2.43;;;2.23;;
15043;SDS011;7619;48.562;8.910;2023-06-10T10:31:28;2.50;;;2.30;;
15043;SDS011;7619;48.562;8.910;2023-06-10T10:33:58;2.57;;;2.37;;
15043;SDS011;7619;48.562;8.910;2023-06-10T10:36:27;2.50;;;2.30;;
15043;SDS011;7619;48.562;8.910;2023-06-10T10:38:55;2.53;;;2.33;;
15043;SDS011;7619;48.562;8.910;2023-06-10T10:41:23;2.60;;;2.40;;
15043;SDS011;7619;48.562;8.910;2023-06-10T10:43:53;2.87;;;2.37;;
15043;SDS011;7619;48.562;8.910;2023-06-10T10:46:21;2.47;;;2.27;;
15043;SDS011;7619;48.562;8.910;2023-06-10T10:48:52;2.87;;;2.40;;
15043;SDS011;7619;48.562;8.910;2023-06-10T10:51:21;3.93;;;2.60;;
15043;SDS011;7619;48.562;8.910;2023-06-10T10:56:37;2.57;;;2.33;;
15043;SDS011;7619;48.562;8.910;2023-06-10T10:59:05;3.03;;;2.47;;
15043;SDS011;7619;48.562;8.910;2023-06-10T11:01:43;2.30;;;2.10;;
15043;SDS011;7619;48.562;8.910;2023-06-10T11:04:13;2.80;;;2.50;;
15043;SDS011;7619;48.562;8.910;2023-06-10T11:06:41;2.20;;;2.00;;
15043;SDS011;7619;48.562;8.910;2023-06-10T11:09:25;2.50;;;2.30;;
15043;SDS011;7619;48.562;8.910;2023-06-10T11:11:54;2.77;;;2.30;;
15043;SDS011;7619;48.562;8.910;2023-06-10T11:14:26;2.07;;;1.97;;
15043;SDS011;7619;48.562;8.910;2023-06-10T11:16:57;2.90;;;2.47;;
15043;SDS011;7619;48.562;8.910;2023-06-10T11:19:32;2.50;;;2.30;;
15043;SDS011;7619;48.562;8.910;2023-06-10T11:22:01;2.33;;;2.13;;
15043;SDS011;7619;48.562;8.910;2023-06-10T11:24:29;2.50;;;2.30;;
15043;SDS011;7619;48.562;8.910;2023-06-10T11:27:17;2.53;;;2.33;;
15043;SDS011;7619;48.562;8.910;2023-06-10T11:29:55;2.50;;;2.30;;
15043;SDS011;7619;48.562;8.910;2023-06-10T11:32:24;2.43;;;2.23;;
15043;SDS011;7619;48.562;8.910;2023-06-10T11:34:53;2.30;;;2.10;;
15043;SDS011;7619;48.562;8.910;2023-06-10T11:37:21;2.23;;;2.07;;
15043;SDS011;7619;48.562;8.910;2023-06-10T11:39:51;2.53;;;2.20;;
15043;SDS011;7619;48.562;8.910;2023-06-10T11:42:20;2.80;;;1.90;;
15043;SDS011;7619;48.562;8.910;2023-06-10T11:44:49;2.13;;;2.03;;
15043;SDS011;7619;48.562;8.910;2023-06-10T11:47:18;2.33;;;1.90;;
15043;SDS011;7619;48.562;8.910;2023-06-10T11:49:55;2.00;;;1.87;;
15043;SDS011;7619;48.562;8.910;2023-06-10T11:52:16;2.40;;;2.20;;
15043;SDS011;7619;48.562;8.910;2023-06-10T11:54:53;2.30;;;2.10;;
15043;SDS011;7619;48.562;8.910;2023-06-10T11:57:22;2.30;;;2.20;;
15043;SDS011;7619;48.562;8.910;2023-06-10T11:59:50;2.83;;;2.63;;
15043;SDS011;7619;48.562;8.910;2023-06-10T12:02:18;2.20;;;2.10;;
15043;SDS011;7619;48.562;8.910;2023-06-10T12:04:46;3.20;;;2.47;;
15043;SDS011;7619;48.562;8.910;2023-06-10T12:07:18;2.80;;;2.60;;
15043;SDS011;7619;48.562;8.910;2023-06-10T12:09:46;2.53;;;2.33;;
15043;SDS011;7619;48.562;8.910;2023-06-10T12:12:14;2.20;;;2.10;;
15043;SDS011;7619;48.562;8.910;2023-06-10T12:14:50;2.40;;;2.20;;
15043;SDS011;7619;48.562;8.910;2023-06-10T12:17:20;2.63;;;2.30;;
15043;SDS011;7619;48.562;8.910;2023-06-10T12:19:49;2.80;;;2.60;;
15043;SDS011;7619;48.562;8.910;2023-06-10T12:22:17;2.77;;;2.57;;
15043;SDS011;7619;48.562;8.910;2023-06-10T12:24:56;2.47;;;2.27;;
15043;SDS011;7619;48.562;8.910;2023-06-10T12:27:18;2.40;;;2.20;;
15043;SDS011;7619;48.562;8.910;2023-06-10T12:29:51;2.30;;;2.20;;
15043;SDS011;7619;48.562;8.910;2023-06-10T12:32:21;2.23;;;2.03;;
15043;SDS011;7619;48.562;8.910;2023-06-10T12:34:54;2.10;;;1.90;;
15043;SDS011;7619;48.562;8.910;2023-06-10T12:37:21;2.47;;;2.17;;
15043;SDS011;7619;48.562;8.910;2023-06-10T12:39:51;3.00;;;2.63;;
15043;SDS011;7619;48.562;8.910;2023-06-10T12:42:22;2.13;;;2.00;;
15043;SDS011;7619;48.562;8.910;2023-06-10T12:44:53;2.00;;;1.90;;
15043;SDS011;7619;48.562;8.910;2023-06-10T12:47:21;1.80;;;1.70;;
15043;SDS011;7619;48.562;8.910;2023-06-10T12:49:51;2.20;;;1.93;;
15043;SDS011;7619;48.562;8.910;2023-06-10T12:52:19;1.83;;;1.70;;
15043;SDS011;7619;48.562;8.910;2023-06-10T12:54:47;3.03;;;2.10;;
15043;SDS011;7619;48.562;8.910;2023-06-10T12:57:15;2.50;;;2.30;;
15043;SDS011;7619;48.562;8.910;2023-06-10T12:59:44;2.00;;;1.90;;
15043;SDS011;7619;48.562;8.910;2023-06-10T13:02:14;2.50;;;2.30;;
15043;SDS011;7619;48.562;8.910;2023-06-10T13:04:43;1.63;;;1.53;;
15043;SDS011;7619;48.562;8.910;2023-06-10T13:07:12;2.20;;;2.00;;
15043;SDS011;7619;48.562;8.910;2023-06-10T13:09:40;1.97;;;1.83;;
15043;SDS011;7619;48.562;8.910;2023-06-10T13:12:08;1.40;;;1.30;;
15043;SDS011;7619;48.562;8.910;2023-06-10T13:14:37;1.87;;;1.60;;
15043;SDS011;7619;48.562;8.910;2023-06-10T13:17:06;2.30;;;2.10;;
15043;SDS011;7619;48.562;8.910;2023-06-10T13:19:34;1.63;;;1.53;;
15043;SDS011;7619;48.562;8.910;2023-06-10T13:22:02;1.50;;;1.40;;
15043;SDS011;7619;48.562;8.910;2023-06-10T13:24:30;2.40;;;1.80;;
15043;SDS011;7619;48.562;8.910;2023-06-10T13:26:58;2.40;;;2.07;;
15043;SDS011;7619;48.562;8.910;2023-06-10T13:29:26;1.90;;;1.80;;
15043;SDS011;7619;48.562;8.910;2023-06-10T13:31:55;1.47;;;1.33;;
15043;SDS011;7619;48.562;8.910;2023-06-10T13:34:23;1.70;;;1.60;;
15043;SDS011;7619;48.562;8.910;2023-06-10T13:36:51;2.23;;;2.03;;
15043;SDS011;7619;48.562;8.910;2023-06-10T13:39:19;2.50;;;2.30;;
15043;SDS011;7619;48.562;8.910;2023-06-10T13:41:47;2.10;;;1.90;;
15043;SDS011;7619;48.562;8.910;2023-06-10T13:44:15;1.80;;;1.70;;
15043;SDS011;7619;48.562;8.910;2023-06-10T13:46:43;3.33;;;2.40;;
15043;SDS011;7619;48.562;8.910;2023-06-10T13:49:11;2.67;;;2.07;;
15043;SDS011;7619;48.562;8.910;2023-06-10T13:51:39;2.07;;;1.87;;
15043;SDS011;7619;48.562;8.910;2023-06-10T13:54:07;3.50;;;2.10;;
15043;SDS011;7619;48.562;8.910;2023-06-10T13:56:36;2.03;;;1.90;;
15043;SDS011;7619;48.562;8.910;2023-06-10T13:59:05;2.20;;;2.00;;
15043;SDS011;7619;48.562;8.910;2023-06-10T14:01:35;2.23;;;2.03;;
15043;SDS011;7619;48.562;8.910;2023-06-10T14:04:04;2.30;;;2.10;;
15043;SDS011;7619;48.562;8.910;2023-06-10T14:06:33;2.03;;;1.90;;
15043;SDS011;7619;48.562;8.910;2023-06-10T14:09:01;2.23;;;2.03;;
15043;SDS011;7619;48.562;8.910;2023-06-10T14:11:29;2.40;;;2.20;;
15043;SDS011;7619;48.562;8.910;2023-06-10T14:13:58;2.30;;;2.10;;
15043;SDS011;7619;48.562;8.910;2023-06-10T14:16:27;2.10;;;1.90;;
15043;SDS011;7619;48.562;8.910;2023-06-10T14:18:58;2.00;;;1.80;;
15043;SDS011;7619;48.562;8.910;2023-06-10T14:21:27;2.03;;;1.83;;
15043;SDS011;7619;48.562;8.910;2023-06-10T14:23:55;1.97;;;1.77;;
15043;SDS011;7619;48.562;8.910;2023-06-10T14:26:23;2.53;;;2.30;;
15043;SDS011;7619;48.562;8.910;2023-06-10T14:28:53;1.80;;;1.70;;
15043;SDS011;7619;48.562;8.910;2023-06-10T14:31:21;2.33;;;2.13;;
15043;SDS011;7619;48.562;8.910;2023-06-10T14:33:49;2.20;;;2.10;;
15043;SDS011;7619;48.562;8.910;2023-06-10T14:36:17;2.23;;;2.03;;
15043;SDS011;7619;48.562;8.910;2023-06-10T14:38:45;2.43;;;2.23;;
15043;SDS011;7619;48.562;8.910;2023-06-10T14:41:14;2.47;;;2.27;;
15043;SDS011;7619;48.562;8.910;2023-06-10T14:43:45;2.57;;;2.37;;
15043;SDS011;7619;48.562;8.910;2023-06-10T14:46:13;2.83;;;2.00;;
15043;SDS011;7619;48.562;8.910;2023-06-10T14:48:41;2.30;;;2.10;;
15043;SDS011;7619;48.562;8.910;2023-06-10T14:51:09;3.23;;;2.80;;
15043;SDS011;7619;48.562;8.910;2023-06-10T14:53:38;3.27;;;2.50;;
15043;SDS011;7619;48.562;8.910;2023-06-10T14:56:06;2.10;;;1.93;;
15043;SDS011;7619;48.562;8.910;2023-06-10T14:58:34;2.47;;;2.10;;
15043;SDS011;7619;48.562;8.910;2023-06-10T15:01:02;2.40;;;2.20;;
15043;SDS011;7619;48.562;8.910;2023-06-10T15:03:30;2.70;;;2.47;;
15043;SDS011;7619;48.562;8.910;2023-06-10T15:05:59;2.53;;;2.23;;
15043;SDS011;7619;48.562;8.910;2023-06-10T15:08:28;4.77;;;2.80;;
15043;SDS011;7619;48.562;8.910;2023-06-10T15:10:56;2.40;;;2.20;;
15043;SDS011;7619;48.562;8.910;2023-06-10T15:13:24;3.50;;;2.53;;
15043;SDS011;7619;48.562;8.910;2023-06-10T15:15:52;2.40;;;2.20;;